Time;durP1;ratioP1;P1;durP2;ratioP2;P2;SDS_P1;SDS_P2;PMS_P1;PMS_P2;Temp;Humidity;BMP_temperature;BMP_pressure;BME280_temperature;BME280_humidity;BME280_pressure;Samples;Min_cycle;Max_cycle;Signal;HPM_P1;HPM_P2
2021/02/27 00:02:19;;;;;;;2.30;1.66;;;;;;;19.32;46.66;102279.34;;;;-49
2021/02/27 00:05:19;;;;;;;1.72;1.61;;;;;;;19.31;46.64;102277.09;;;;-49
2021/02/27 00:08:19;;;;;;;1.64;1.54;;;;;;;19.28;46.63;102282.20;;;;-49
2021/02/27 00:11:19;;;;;;;1.99;1.79;;;;;;;19.27;46.63;102285.14;;;;-49
2021/02/27 00:14:19;;;;;;;2.06;1.57;;;;;;;19.24;46.64;102289.86;;;;-49
2021/02/27 00:17:19;;;;;;;1.69;1.59;;;;;;;19.22;46.68;102285.72;;;;-49
2021/02/27 00:20:19;;;;;;;1.69;1.59;;;;;;;19.21;46.63;102281.02;;;;-49
2021/02/27 00:23:19;;;;;;;3.10;1.60;;;;;;;19.18;46.68;102284.36;;;;-49
2021/02/27 00:26:19;;;;;;;1.71;1.59;;;;;;;19.16;46.67;102283.62;;;;-49
2021/02/27 00:29:19;;;;;;;1.80;1.62;;;;;;;19.15;46.69;102284.86;;;;-49
2021/02/27 00:32:19;;;;;;;1.78;1.67;;;;;;;19.12;46.64;102281.04;;;;-49
2021/02/27 00:35:19;;;;;;;1.78;1.66;;;;;;;19.10;46.64;102280.16;;;;-49
2021/02/27 00:38:19;;;;;;;1.63;1.48;;;;;;;19.09;46.64;102283.34;;;;-48
2021/02/27 00:41:19;;;;;;;1.72;1.59;;;;;;;19.06;46.64;102293.16;;;;-49
2021/02/27 00:44:19;;;;;;;1.69;1.59;;;;;;;19.04;46.64;102291.22;;;;-49
2021/02/27 00:47:19;;;;;;;1.80;1.70;;;;;;;19.02;46.66;102300.47;;;;-49
2021/02/27 00:50:19;;;;;;;2.25;1.70;;;;;;;19.01;46.67;102297.49;;;;-49
2021/02/27 00:53:19;;;;;;;2.35;1.67;;;;;;;18.99;46.67;102300.95;;;;-49
2021/02/27 00:56:19;;;;;;;1.91;1.68;;;;;;;18.96;46.68;102303.75;;;;-49
2021/02/27 00:59:19;;;;;;;1.70;1.60;;;;;;;18.94;46.68;102301.00;;;;-48
2021/02/27 01:02:19;;;;;;;2.59;1.59;;;;;;;18.93;46.66;102303.89;;;;-49
2021/02/27 01:05:19;;;;;;;1.94;1.67;;;;;;;18.91;46.67;102306.17;;;;-49
2021/02/27 01:08:19;;;;;;;1.70;1.60;;;;;;;18.90;46.70;102310.74;;;;-49
2021/02/27 01:11:19;;;;;;;1.76;1.62;;;;;;;18.87;46.70;102306.52;;;;-49
2021/02/27 01:14:19;;;;;;;1.89;1.68;;;;;;;18.85;46.74;102305.86;;;;-49
2021/02/27 01:17:19;;;;;;;1.85;1.70;;;;;;;18.83;46.74;102314.16;;;;-49
2021/02/27 01:20:19;;;;;;;1.70;1.60;;;;;;;18.82;46.73;102308.56;;;;-49
2021/02/27 01:23:19;;;;;;;1.77;1.67;;;;;;;18.81;46.70;102307.31;;;;-49
2021/02/27 01:26:19;;;;;;;1.91;1.66;;;;;;;18.79;46.70;102306.51;;;;-50
2021/02/27 01:29:19;;;;;;;1.96;1.76;;;;;;;18.76;46.71;102303.25;;;;-49
2021/02/27 01:32:19;;;;;;;2.01;1.81;;;;;;;18.74;46.70;102304.36;;;;-49
2021/02/27 01:35:19;;;;;;;2.40;1.79;;;;;;;18.73;46.74;102305.69;;;;-51
2021/02/27 01:38:19;;;;;;;1.82;1.59;;;;;;;18.71;46.73;102311.52;;;;-50
2021/02/27 01:41:19;;;;;;;1.78;1.68;;;;;;;18.69;46.77;102309.90;;;;-49
2021/02/27 01:44:19;;;;;;;1.89;1.77;;;;;;;18.68;46.74;102312.80;;;;-53
2021/02/27 01:47:19;;;;;;;1.73;1.63;;;;;;;18.66;46.74;102312.33;;;;-52
2021/02/27 01:50:19;;;;;;;1.79;1.68;;;;;;;18.65;46.71;102303.09;;;;-52
2021/02/27 01:53:19;;;;;;;1.77;1.67;;;;;;;18.63;46.76;102308.37;;;;-52
2021/02/27 01:56:19;;;;;;;1.99;1.77;;;;;;;18.62;46.73;102306.63;;;;-49
2021/02/27 01:59:19;;;;;;;1.91;1.76;;;;;;;18.61;46.78;102312.02;;;;-49
2021/02/27 02:02:19;;;;;;;1.67;1.57;;;;;;;18.59;46.72;102306.98;;;;-49
2021/02/27 02:05:19;;;;;;;1.89;1.70;;;;;;;18.57;46.76;102306.55;;;;-49
2021/02/27 02:08:19;;;;;;;2.29;1.83;;;;;;;18.56;46.76;102309.33;;;;-49
2021/02/27 02:11:19;;;;;;;2.47;1.78;;;;;;;18.55;46.77;102305.93;;;;-49
2021/02/27 02:14:19;;;;;;;1.98;1.62;;;;;;;18.54;46.78;102313.06;;;;-49
2021/02/27 02:17:19;;;;;;;1.85;1.71;;;;;;;18.53;46.76;102316.64;;;;-48
2021/02/27 02:20:19;;;;;;;1.91;1.71;;;;;;;18.52;46.74;102313.70;;;;-48
2021/02/27 02:23:19;;;;;;;2.06;1.63;;;;;;;18.50;46.75;102307.78;;;;-48
2021/02/27 02:26:19;;;;;;;2.12;1.70;;;;;;;18.48;46.75;102311.52;;;;-48
2021/02/27 02:29:19;;;;;;;1.92;1.73;;;;;;;18.47;46.75;102308.98;;;;-48
2021/02/27 02:32:19;;;;;;;1.81;1.71;;;;;;;18.46;46.79;102310.70;;;;-48
2021/02/27 02:35:19;;;;;;;2.05;1.81;;;;;;;18.45;46.79;102308.49;;;;-48
2021/02/27 02:38:19;;;;;;;2.01;1.81;;;;;;;18.44;46.76;102302.50;;;;-52
2021/02/27 02:41:19;;;;;;;2.59;1.65;;;;;;;18.43;46.75;102307.52;;;;-52
2021/02/27 02:44:20;;;;;;;1.83;1.67;;;;;;;18.42;46.77;102307.52;;;;-50
2021/02/27 02:47:19;;;;;;;1.79;1.69;;;;;;;18.40;46.77;102302.91;;;;-51
2021/02/27 02:50:19;;;;;;;1.89;1.69;;;;;;;18.38;46.82;102299.59;;;;-48
2021/02/27 02:53:19;;;;;;;1.99;1.81;;;;;;;18.37;46.79;102299.89;;;;-49
2021/02/27 02:56:19;;;;;;;1.88;1.70;;;;;;;18.37;46.78;102303.03;;;;-49
2021/02/27 02:59:19;;;;;;;2.34;1.80;;;;;;;18.35;46.79;102299.88;;;;-49
2021/02/27 03:02:19;;;;;;;2.13;1.78;;;;;;;18.34;46.79;102299.02;;;;-49
2021/02/27 03:05:19;;;;;;;2.07;1.87;;;;;;;18.33;46.77;102302.55;;;;-48
2021/02/27 03:08:19;;;;;;;1.87;1.71;;;;;;;18.32;46.81;102307.61;;;;-48
2021/02/27 03:11:19;;;;;;;1.87;1.76;;;;;;;18.30;46.78;102309.56;;;;-49
2021/02/27 03:14:19;;;;;;;2.18;1.87;;;;;;;18.30;46.77;102308.90;;;;-49
2021/02/27 03:17:19;;;;;;;2.07;1.86;;;;;;;18.29;46.76;102312.70;;;;-49
2021/02/27 03:20:19;;;;;;;2.37;1.83;;;;;;;18.28;46.77;102317.34;;;;-48
2021/02/27 03:23:19;;;;;;;2.08;1.81;;;;;;;18.26;46.79;102313.08;;;;-49
2021/02/27 03:26:19;;;;;;;3.15;1.80;;;;;;;18.25;46.73;102319.59;;;;-49
2021/02/27 03:29:19;;;;;;;2.13;1.85;;;;;;;18.24;46.77;102322.78;;;;-49
2021/02/27 03:32:19;;;;;;;2.00;1.80;;;;;;;18.24;46.77;102318.80;;;;-49
2021/02/27 03:35:19;;;;;;;1.83;1.69;;;;;;;18.22;46.74;102323.39;;;;-49
2021/02/27 03:38:19;;;;;;;2.01;1.81;;;;;;;18.21;46.76;102324.38;;;;-48
2021/02/27 03:41:19;;;;;;;2.09;1.79;;;;;;;18.20;46.79;102324.44;;;;-49
2021/02/27 03:44:19;;;;;;;1.89;1.73;;;;;;;18.19;46.78;102321.77;;;;-49
2021/02/27 03:47:19;;;;;;;1.97;1.79;;;;;;;18.18;46.78;102326.39;;;;-49
2021/02/27 03:50:19;;;;;;;2.11;1.85;;;;;;;18.18;46.76;102325.74;;;;-49
2021/02/27 03:53:19;;;;;;;2.01;1.80;;;;;;;18.16;46.78;102325.50;;;;-48
2021/02/27 03:56:19;;;;;;;2.10;1.90;;;;;;;18.16;46.78;102324.67;;;;-49
2021/02/27 03:59:19;;;;;;;2.04;1.80;;;;;;;18.14;46.80;102323.95;;;;-49
2021/02/27 04:02:19;;;;;;;1.98;1.79;;;;;;;18.14;46.75;102329.87;;;;-49
2021/02/27 04:05:19;;;;;;;2.11;1.91;;;;;;;18.13;46.82;102337.11;;;;-49
2021/02/27 04:08:19;;;;;;;2.31;1.73;;;;;;;18.12;46.74;102339.84;;;;-49
2021/02/27 04:11:19;;;;;;;2.10;1.79;;;;;;;18.11;46.83;102340.36;;;;-49
2021/02/27 04:14:19;;;;;;;2.11;1.90;;;;;;;18.10;46.78;102340.97;;;;-48
2021/02/27 04:17:19;;;;;;;2.27;2.01;;;;;;;18.09;46.84;102347.32;;;;-49
2021/02/27 04:20:19;;;;;;;2.10;1.90;;;;;;;18.07;46.75;102350.53;;;;-48
2021/02/27 04:23:19;;;;;;;1.81;1.71;;;;;;;18.07;46.77;102349.39;;;;-49
2021/02/27 04:26:19;;;;;;;2.15;1.86;;;;;;;18.07;46.81;102355.27;;;;-49
2021/02/27 04:29:19;;;;;;;1.94;1.80;;;;;;;18.05;46.85;102350.23;;;;-49
2021/02/27 04:32:19;;;;;;;2.07;1.87;;;;;;;18.05;46.75;102349.58;;;;-49
2021/02/27 04:35:19;;;;;;;2.21;2.01;;;;;;;18.04;46.83;102355.31;;;;-48
2021/02/27 04:38:19;;;;;;;2.01;1.88;;;;;;;18.02;46.76;102364.64;;;;-49
2021/02/27 04:41:19;;;;;;;2.06;1.79;;;;;;;18.02;46.75;102361.55;;;;-49
2021/02/27 04:44:19;;;;;;;2.07;1.87;;;;;;;18.01;46.85;102364.42;;;;-49
2021/02/27 04:47:19;;;;;;;2.23;1.98;;;;;;;18.00;46.85;102367.41;;;;-49
2021/02/27 04:50:19;;;;;;;2.36;2.00;;;;;;;17.99;46.79;102361.66;;;;-48
2021/02/27 04:53:19;;;;;;;2.24;1.93;;;;;;;17.98;46.77;102365.13;;;;-49
2021/02/27 04:56:19;;;;;;;2.27;1.91;;;;;;;17.97;46.86;102364.37;;;;-49
2021/02/27 04:59:19;;;;;;;1.98;1.81;;;;;;;17.96;46.85;102361.15;;;;-49
2021/02/27 05:02:19;;;;;;;2.69;1.95;;;;;;;17.95;46.76;102367.61;;;;-49
2021/02/27 05:05:19;;;;;;;2.09;1.90;;;;;;;17.95;46.81;102371.95;;;;-49
2021/02/27 05:08:19;;;;;;;2.11;1.91;;;;;;;17.94;46.77;102365.43;;;;-49
2021/02/27 05:11:19;;;;;;;2.15;1.95;;;;;;;17.93;46.75;102371.41;;;;-50
2021/02/27 05:14:19;;;;;;;2.07;1.87;;;;;;;17.92;46.73;102375.72;;;;-50
2021/02/27 05:17:19;;;;;;;2.29;2.01;;;;;;;17.91;46.83;102376.69;;;;-50
2021/02/27 05:20:19;;;;;;;2.30;1.90;;;;;;;17.91;46.80;102376.36;;;;-50
2021/02/27 05:23:19;;;;;;;2.03;1.83;;;;;;;17.90;46.80;102375.97;;;;-50
2021/02/27 05:26:19;;;;;;;1.95;1.80;;;;;;;17.90;46.70;102377.66;;;;-50
2021/02/27 05:29:19;;;;;;;2.18;1.90;;;;;;;17.88;46.76;102378.64;;;;-50
2021/02/27 05:32:19;;;;;;;2.18;1.93;;;;;;;17.87;46.75;102376.43;;;;-50
2021/02/27 05:35:19;;;;;;;2.23;1.87;;;;;;;17.88;46.75;102376.77;;;;-49
2021/02/27 05:38:19;;;;;;;2.09;1.90;;;;;;;17.86;46.72;102379.20;;;;-49
2021/02/27 05:41:19;;;;;;;2.11;1.91;;;;;;;17.86;46.79;102376.91;;;;-48
2021/02/27 05:44:19;;;;;;;2.78;1.88;;;;;;;17.85;46.80;102380.87;;;;-48
2021/02/27 05:47:19;;;;;;;2.20;1.90;;;;;;;17.85;46.75;102385.16;;;;-49
2021/02/27 05:50:19;;;;;;;2.29;1.92;;;;;;;17.83;46.80;102390.36;;;;-48
2021/02/27 05:53:19;;;;;;;2.07;1.87;;;;;;;17.82;46.72;102391.06;;;;-48
2021/02/27 05:56:19;;;;;;;4.89;2.85;;;;;;;17.69;44.38;102393.98;;;;-58
2021/02/27 05:59:19;;;;;;;6.85;5.00;;;;;;;17.12;42.47;102396.43;;;;-57
2021/02/27 06:02:19;;;;;;;6.62;5.44;;;;;;;16.84;42.24;102399.03;;;;-58
2021/02/27 06:05:19;;;;;;;9.96;7.55;;;;;;;16.59;42.02;102400.39;;;;-59
2021/02/27 06:08:19;;;;;;;8.24;6.79;;;;;;;16.65;42.79;102396.16;;;;-61
2021/02/27 06:11:19;;;;;;;7.61;6.21;;;;;;;16.85;43.92;102397.83;;;;-60
2021/02/27 06:14:19;;;;;;;8.04;5.49;;;;;;;16.98;44.34;102397.78;;;;-52
2021/02/27 06:17:19;;;;;;;7.58;5.41;;;;;;;17.10;44.51;102400.88;;;;-58
2021/02/27 06:20:19;;;;;;;6.84;5.09;;;;;;;17.19;44.63;102400.86;;;;-58
2021/02/27 06:23:19;;;;;;;6.57;4.99;;;;;;;17.26;44.77;102410.74;;;;-55
2021/02/27 06:26:19;;;;;;;5.86;4.64;;;;;;;17.32;44.83;102401.70;;;;-60
2021/02/27 06:29:19;;;;;;;5.52;4.19;;;;;;;17.39;45.04;102414.38;;;;-56
2021/02/27 06:32:19;;;;;;;4.80;4.01;;;;;;;17.44;45.09;102414.03;;;;-63
2021/02/27 06:35:19;;;;;;;4.96;3.83;;;;;;;17.52;45.08;102411.13;;;;-49
2021/02/27 06:38:19;;;;;;;5.37;3.60;;;;;;;17.56;44.83;102416.29;;;;-48
2021/02/27 06:41:19;;;;;;;4.27;3.48;;;;;;;17.62;45.09;102419.70;;;;-49
2021/02/27 06:44:19;;;;;;;6.27;3.49;;;;;;;17.67;45.26;102422.03;;;;-49
2021/02/27 06:47:19;;;;;;;4.88;3.13;;;;;;;17.72;45.30;102417.83;;;;-49
2021/02/27 06:50:19;;;;;;;4.40;3.32;;;;;;;17.77;45.35;102420.46;;;;-49
2021/02/27 06:53:19;;;;;;;4.05;3.14;;;;;;;17.83;45.32;102425.06;;;;-47
2021/02/27 06:56:19;;;;;;;5.20;3.08;;;;;;;17.89;45.42;102425.59;;;;-51
2021/02/27 06:59:19;;;;;;;3.61;2.93;;;;;;;17.93;45.59;102427.88;;;;-51
2021/02/27 07:02:19;;;;;;;4.11;3.04;;;;;;;17.99;45.40;102427.69;;;;-51
2021/02/27 07:05:19;;;;;;;3.94;3.13;;;;;;;18.05;45.63;102437.20;;;;-51
2021/02/27 07:08:19;;;;;;;3.35;2.77;;;;;;;18.11;45.65;102443.47;;;;-52
2021/02/27 07:11:19;;;;;;;3.23;2.71;;;;;;;18.12;45.63;102444.12;;;;-47
2021/02/27 07:14:19;;;;;;;3.61;2.77;;;;;;;18.15;45.52;102452.66;;;;-47
2021/02/27 07:17:19;;;;;;;3.41;2.75;;;;;;;18.17;45.61;102452.99;;;;-48
2021/02/27 07:20:19;;;;;;;3.59;2.67;;;;;;;18.19;45.71;102459.42;;;;-59
2021/02/27 07:23:19;;;;;;;2.94;2.64;;;;;;;18.21;45.67;102462.59;;;;-57
2021/02/27 07:26:19;;;;;;;2.80;2.50;;;;;;;18.21;45.67;102459.03;;;;-57
2021/02/27 07:29:19;;;;;;;2.93;2.59;;;;;;;18.23;45.64;102465.83;;;;-59
2021/02/27 07:32:19;;;;;;;2.91;2.57;;;;;;;18.23;45.81;102465.28;;;;-58
2021/02/27 07:35:19;;;;;;;3.08;2.45;;;;;;;18.23;45.65;102464.78;;;;-57
2021/02/27 07:38:19;;;;;;;3.00;2.62;;;;;;;18.24;45.81;102468.78;;;;-58
2021/02/27 07:41:19;;;;;;;2.95;2.64;;;;;;;18.24;45.64;102472.00;;;;-49
2021/02/27 07:44:19;;;;;;;3.58;2.83;;;;;;;18.24;45.79;102471.42;;;;-49
2021/02/27 07:47:19;;;;;;;2.57;2.37;;;;;;;18.25;45.86;102473.89;;;;-49
2021/02/27 07:50:19;;;;;;;2.88;2.55;;;;;;;18.25;45.77;102480.22;;;;-48
2021/02/27 07:53:19;;;;;;;3.17;2.59;;;;;;;18.25;45.79;102489.13;;;;-53
2021/02/27 07:56:19;;;;;;;3.46;2.58;;;;;;;18.25;45.79;102489.73;;;;-52
2021/02/27 07:59:19;;;;;;;3.23;2.64;;;;;;;18.25;45.78;102489.88;;;;-52
2021/02/27 08:03:19;;;;;;;2.98;2.55;;;;;;;18.24;45.75;102494.75;;;;-53
2021/02/27 08:06:19;;;;;;;3.19;2.61;;;;;;;18.23;45.73;102500.83;;;;-52
2021/02/27 08:09:19;;;;;;;2.64;2.41;;;;;;;18.24;45.78;102498.48;;;;-52
2021/02/27 08:12:19;;;;;;;2.74;2.37;;;;;;;18.24;45.77;102501.83;;;;-52
2021/02/27 08:15:19;;;;;;;3.27;2.53;;;;;;;18.24;45.70;102503.20;;;;-57
2021/02/27 08:18:19;;;;;;;2.92;2.62;;;;;;;18.23;45.75;102509.67;;;;-50
2021/02/27 08:21:19;;;;;;;2.85;2.54;;;;;;;18.22;45.75;102506.88;;;;-50
2021/02/27 08:24:19;;;;;;;2.89;2.53;;;;;;;18.21;45.77;102509.83;;;;-50
2021/02/27 08:27:19;;;;;;;2.65;2.43;;;;;;;18.21;45.76;102511.03;;;;-50
2021/02/27 08:30:19;;;;;;;2.79;2.41;;;;;;;18.20;45.71;102508.02;;;;-50
2021/02/27 08:33:19;;;;;;;2.75;2.42;;;;;;;18.20;45.74;102511.59;;;;-50
2021/02/27 08:36:19;;;;;;;3.05;2.47;;;;;;;18.19;45.74;102513.39;;;;-52
2021/02/27 08:39:19;;;;;;;3.03;2.46;;;;;;;18.18;45.77;102512.31;;;;-50
2021/02/27 08:42:19;;;;;;;2.44;2.24;;;;;;;18.17;45.80;102510.46;;;;-50
2021/02/27 08:45:19;;;;;;;2.57;2.37;;;;;;;18.17;45.80;102509.65;;;;-50
2021/02/27 08:48:19;;;;;;;2.71;2.43;;;;;;;18.17;45.79;102507.20;;;;-50
2021/02/27 08:51:19;;;;;;;2.78;2.41;;;;;;;18.16;45.79;102507.44;;;;-50
2021/02/27 08:54:19;;;;;;;2.91;2.60;;;;;;;18.16;45.69;102506.48;;;;-48
2021/02/27 08:57:19;;;;;;;3.02;2.33;;;;;;;18.17;45.79;102509.95;;;;-52
2021/02/27 09:00:19;;;;;;;2.72;2.33;;;;;;;18.16;45.78;102508.92;;;;-52
2021/02/27 09:03:19;;;;;;;2.93;2.54;;;;;;;18.16;46.11;102505.16;;;;-52
2021/02/27 09:06:19;;;;;;;2.70;2.29;;;;;;;18.18;46.28;102509.31;;;;-54
2021/02/27 09:09:19;;;;;;;3.39;2.37;;;;;;;18.21;46.63;102503.25;;;;-58
2021/02/27 09:12:19;;;;;;;2.86;2.19;;;;;;;18.23;46.75;102503.58;;;;-54
2021/02/27 09:15:19;;;;;;;2.54;2.29;;;;;;;18.24;46.74;102505.84;;;;-59
2021/02/27 09:18:19;;;;;;;2.63;2.24;;;;;;;18.26;46.73;102500.17;;;;-55
2021/02/27 09:21:19;;;;;;;3.13;2.54;;;;;;;18.29;46.83;102506.36;;;;-55
2021/02/27 09:24:19;;;;;;;2.72;2.38;;;;;;;18.31;46.89;102498.74;;;;-50
2021/02/27 09:27:19;;;;;;;9.26;2.27;;;;;;;18.35;46.89;102504.75;;;;-52
2021/02/27 09:30:19;;;;;;;4.52;2.34;;;;;;;18.35;46.98;102501.11;;;;-48
2021/02/27 09:33:20;;;;;;;2.63;2.30;;;;;;;18.38;46.99;102499.93;;;;-46
2021/02/27 09:36:19;;;;;;;2.95;2.31;;;;;;;18.42;46.93;102506.67;;;;-59
2021/02/27 09:39:19;;;;;;;2.68;2.25;;;;;;;18.43;46.66;102502.56;;;;-52
2021/02/27 09:42:19;;;;;;;2.56;2.20;;;;;;;18.42;46.44;102503.12;;;;-59
2021/02/27 09:45:19;;;;;;;2.43;2.19;;;;;;;18.42;46.30;102504.25;;;;-52
2021/02/27 09:48:19;;;;;;;2.23;1.99;;;;;;;18.42;46.22;102501.98;;;;-55
2021/02/27 09:51:19;;;;;;;2.43;2.21;;;;;;;18.43;46.31;102502.93;;;;-57
2021/02/27 09:54:19;;;;;;;2.87;2.03;;;;;;;18.45;46.33;102500.74;;;;-56
2021/02/27 09:57:19;;;;;;;2.43;2.18;;;;;;;18.47;46.57;102505.63;;;;-50
2021/02/27 10:00:19;;;;;;;2.49;2.04;;;;;;;18.55;46.63;102508.73;;;;-58
2021/02/27 10:03:19;;;;;;;2.93;2.13;;;;;;;18.60;46.46;102506.02;;;;-54
2021/02/27 10:06:19;;;;;;;7.69;2.28;;;;;;;18.61;46.27;102501.88;;;;-61
2021/02/27 10:09:19;;;;;;;6.51;2.10;;;;;;;18.64;46.14;102503.25;;;;-57
2021/02/27 10:12:19;;;;;;;3.44;2.07;;;;;;;18.67;45.99;102508.25;;;;-61
2021/02/27 10:15:19;;;;;;;3.86;1.95;;;;;;;18.69;45.91;102508.66;;;;-61
2021/02/27 10:18:19;;;;;;;2.77;1.81;;;;;;;18.72;45.80;102508.72;;;;-55
2021/02/27 10:21:19;;;;;;;3.58;1.93;;;;;;;18.74;45.65;102508.39;;;;-60
2021/02/27 10:24:19;;;;;;;2.87;1.90;;;;;;;18.77;45.43;102508.01;;;;-59
2021/02/27 10:27:19;;;;;;;3.32;2.01;;;;;;;18.79;45.16;102503.02;;;;-57
2021/02/27 10:30:19;;;;;;;3.57;1.95;;;;;;;18.84;45.55;102506.05;;;;-53
2021/02/27 10:33:19;;;;;;;5.17;2.09;;;;;;;18.85;45.46;102506.28;;;;-52
2021/02/27 10:36:19;;;;;;;9.07;2.17;;;;;;;18.92;45.66;102505.91;;;;-62
2021/02/27 10:39:19;;;;;;;2.50;1.82;;;;;;;19.03;45.83;102502.48;;;;-49
2021/02/27 10:42:19;;;;;;;3.21;1.90;;;;;;;19.09;45.88;102506.88;;;;-51
2021/02/27 10:45:19;;;;;;;4.69;1.79;;;;;;;19.18;46.09;102507.95;;;;-48
2021/02/27 10:48:18;;;;;;;2.76;1.97;;;;;;;19.24;45.93;102502.19;;;;-57
2021/02/27 10:51:19;;;;;;;4.57;1.87;;;;;;;19.30;46.01;102501.17;;;;-53
2021/02/27 10:54:19;;;;;;;2.02;1.82;;;;;;;19.37;46.07;102503.33;;;;-54
2021/02/27 10:57:19;;;;;;;4.09;1.79;;;;;;;19.38;46.06;102504.17;;;;-53
2021/02/27 11:00:19;;;;;;;2.85;1.80;;;;;;;19.44;46.09;102503.16;;;;-49
2021/02/27 11:03:19;;;;;;;2.34;1.77;;;;;;;19.49;46.36;102503.08;;;;-49
2021/02/27 11:06:19;;;;;;;1.92;1.69;;;;;;;19.51;46.36;102505.13;;;;-50
2021/02/27 11:09:19;;;;;;;2.23;1.71;;;;;;;19.52;46.46;102499.20;;;;-53
2021/02/27 11:12:19;;;;;;;1.99;1.63;;;;;;;19.57;46.34;102498.40;;;;-56
2021/02/27 11:15:19;;;;;;;1.91;1.71;;;;;;;19.57;46.20;102496.72;;;;-56
2021/02/27 11:18:21;;;;;;;3.12;1.81;;;;;;;19.58;46.32;102497.09;;;;-52
2021/02/27 11:21:19;;;;;;;2.73;1.78;;;;;;;19.64;46.37;102496.75;;;;-50
2021/02/27 11:24:19;;;;;;;2.78;1.66;;;;;;;19.68;46.33;102489.16;;;;-49
2021/02/27 11:27:18;;;;;;;1.80;1.67;;;;;;;19.70;46.32;102490.75;;;;-51
2021/02/27 11:30:19;;;;;;;2.13;1.59;;;;;;;19.71;46.37;102486.27;;;;-51
2021/02/27 11:33:19;;;;;;;1.96;1.75;;;;;;;19.75;46.37;102485.62;;;;-57
2021/02/27 11:36:19;;;;;;;2.68;1.50;;;;;;;19.75;45.88;102482.45;;;;-57
2021/02/27 11:39:19;;;;;;;1.87;1.60;;;;;;;19.74;45.78;102478.59;;;;-57
2021/02/27 11:42:19;;;;;;;2.29;1.65;;;;;;;19.73;45.69;102478.80;;;;-57
2021/02/27 11:45:19;;;;;;;2.62;1.63;;;;;;;19.75;45.60;102477.81;;;;-56
2021/02/27 11:48:19;;;;;;;2.78;1.67;;;;;;;19.74;45.49;102469.50;;;;-60
2021/02/27 11:51:18;;;;;;;2.02;1.68;;;;;;;19.76;45.57;102469.73;;;;-52
2021/02/27 11:54:19;;;;;;;2.37;1.69;;;;;;;19.75;45.49;102467.88;;;;-57
2021/02/27 11:57:19;;;;;;;1.72;1.60;;;;;;;19.78;45.48;102465.58;;;;-59
2021/02/27 12:00:19;;;;;;;1.86;1.57;;;;;;;19.78;45.47;102465.08;;;;-60
2021/02/27 12:03:19;;;;;;;1.89;1.55;;;;;;;19.79;45.46;102463.48;;;;-60
2021/02/27 12:06:19;;;;;;;1.91;1.51;;;;;;;19.79;45.36;102459.26;;;;-59
2021/02/27 12:09:18;;;;;;;1.60;1.50;;;;;;;19.81;45.35;102457.28;;;;-59
2021/02/27 12:12:19;;;;;;;1.81;1.55;;;;;;;19.82;45.34;102456.30;;;;-60
2021/02/27 12:15:23;;;;;;;1.65;1.40;;;;;;;19.83;45.26;102447.84;;;;-59
2021/02/27 12:18:19;;;;;;;1.69;1.49;;;;;;;19.84;45.15;102450.91;;;;-60
2021/02/27 12:21:19;;;;;;;2.37;1.50;;;;;;;19.84;45.18;102438.88;;;;-60
2021/02/27 12:24:18;;;;;;;2.03;1.43;;;;;;;19.84;45.16;102437.66;;;;-60
2021/02/27 12:27:19;;;;;;;1.77;1.46;;;;;;;19.85;45.20;102436.54;;;;-60
2021/02/27 12:30:19;;;;;;;2.12;1.53;;;;;;;19.86;45.07;102441.39;;;;-60
2021/02/27 12:33:19;;;;;;;1.57;1.47;;;;;;;19.87;45.11;102435.30;;;;-57
2021/02/27 12:36:19;;;;;;;2.13;1.45;;;;;;;19.88;45.15;102432.77;;;;-58
2021/02/27 12:39:19;;;;;;;1.41;1.29;;;;;;;19.89;45.10;102427.73;;;;-58
2021/02/27 12:42:19;;;;;;;1.72;1.52;;;;;;;19.89;45.12;102429.36;;;;-58
2021/02/27 12:45:19;;;;;;;1.83;1.61;;;;;;;19.91;45.05;102424.78;;;;-58
2021/02/27 12:48:18;;;;;;;1.79;1.43;;;;;;;19.91;45.06;102417.21;;;;-52
2021/02/27 12:51:19;;;;;;;1.60;1.31;;;;;;;19.92;45.04;102416.17;;;;-51
2021/02/27 12:54:19;;;;;;;2.03;1.53;;;;;;;19.92;45.08;102412.84;;;;-60
2021/02/27 12:57:19;;;;;;;2.21;1.54;;;;;;;19.94;44.99;102407.22;;;;-52
2021/02/27 13:00:19;;;;;;;1.50;1.40;;;;;;;19.94;44.95;102415.64;;;;-57
2021/02/27 13:03:19;;;;;;;2.81;1.49;;;;;;;19.94;45.01;102408.28;;;;-51
2021/02/27 13:06:19;;;;;;;1.71;1.40;;;;;;;19.95;45.00;102403.45;;;;-53
2021/02/27 13:09:19;;;;;;;1.81;1.63;;;;;;;19.96;44.94;102400.45;;;;-52
2021/02/27 13:12:19;;;;;;;2.96;1.61;;;;;;;19.97;44.97;102395.23;;;;-51
2021/02/27 13:15:20;;;;;;;2.05;1.52;;;;;;;19.99;44.92;102391.95;;;;-51
2021/02/27 13:18:19;;;;;;;1.89;1.60;;;;;;;19.99;44.67;102402.14;;;;-48
2021/02/27 13:21:21;;;;;;;1.70;1.59;;;;;;;20.00;44.45;102392.05;;;;-53
2021/02/27 13:24:19;;;;;;;2.55;1.66;;;;;;;20.00;44.45;102388.47;;;;-54
2021/02/27 13:27:18;;;;;;;1.66;1.47;;;;;;;20.02;44.65;102392.45;;;;-53
2021/02/27 13:30:19;;;;;;;2.49;1.60;;;;;;;20.03;44.65;102389.00;;;;-53
2021/02/27 13:33:19;;;;;;;2.76;1.58;;;;;;;20.05;44.73;102384.42;;;;-53
2021/02/27 13:36:18;;;;;;;2.26;1.51;;;;;;;20.05;44.69;102381.09;;;;-64
2021/02/27 13:39:19;;;;;;;1.60;1.50;;;;;;;20.06;44.69;102381.67;;;;-64
2021/02/27 13:42:20;;;;;;;2.03;1.61;;;;;;;20.06;44.71;102375.34;;;;-64
2021/02/27 13:45:19;;;;;;;1.60;1.50;;;;;;;20.05;44.70;102377.19;;;;-53
2021/02/27 13:48:19;;;;;;;2.02;1.50;;;;;;;20.06;44.72;102370.20;;;;-54
2021/02/27 13:51:19;;;;;;;1.73;1.43;;;;;;;20.06;44.83;102364.02;;;;-54
2021/02/27 13:54:20;;;;;;;1.56;1.46;;;;;;;20.05;44.80;102365.96;;;;-53
2021/02/27 13:57:19;;;;;;;1.71;1.51;;;;;;;20.07;44.75;102362.69;;;;-53
2021/02/27 14:00:18;;;;;;;1.50;1.39;;;;;;;20.08;44.70;102362.31;;;;-64
2021/02/27 14:03:19;;;;;;;1.66;1.45;;;;;;;20.09;44.75;102355.19;;;;-54
2021/02/27 14:06:19;;;;;;;1.46;1.35;;;;;;;20.12;44.76;102355.92;;;;-53
2021/02/27 14:09:18;;;;;;;1.65;1.39;;;;;;;20.12;44.68;102357.88;;;;-53
2021/02/27 14:12:19;;;;;;;2.16;1.39;;;;;;;20.15;44.72;102355.39;;;;-51
2021/02/27 14:15:19;;;;;;;2.61;1.50;;;;;;;20.20;44.84;102357.98;;;;-57
2021/02/27 14:18:19;;;;;;;2.03;1.51;;;;;;;20.21;44.66;102355.81;;;;-45
2021/02/27 14:21:19;;;;;;;2.33;1.71;;;;;;;20.23;44.75;102355.34;;;;-51
2021/02/27 14:24:18;;;;;;;2.01;1.51;;;;;;;20.27;44.85;102348.77;;;;-52
2021/02/27 14:27:19;;;;;;;2.58;1.57;;;;;;;20.30;44.90;102346.94;;;;-57
2021/02/27 14:30:19;;;;;;;2.80;1.44;;;;;;;20.30;45.02;102345.88;;;;-59
2021/02/27 14:33:18;;;;;;;1.80;1.57;;;;;;;20.35;45.13;102346.67;;;;-58
2021/02/27 14:36:19;;;;;;;1.86;1.52;;;;;;;20.35;45.12;102346.35;;;;-52
2021/02/27 14:39:18;;;;;;;2.21;1.55;;;;;;;20.38;45.11;102343.38;;;;-51
2021/02/27 14:42:18;;;;;;;1.77;1.50;;;;;;;20.39;45.03;102342.16;;;;-58
2021/02/27 14:45:19;;;;;;;3.83;1.56;;;;;;;20.42;45.12;102343.30;;;;-60
2021/02/27 14:48:18;;;;;;;1.90;1.33;;;;;;;20.44;45.13;102341.50;;;;-59
2021/02/27 14:51:19;;;;;;;1.57;1.41;;;;;;;20.46;45.12;102337.53;;;;-49
2021/02/27 14:54:19;;;;;;;1.66;1.41;;;;;;;20.48;45.28;102334.22;;;;-50
2021/02/27 14:57:18;;;;;;;1.64;1.47;;;;;;;20.50;45.02;102331.44;;;;-60
2021/02/27 15:00:19;;;;;;;3.73;1.39;;;;;;;20.53;45.13;102325.60;;;;-50
2021/02/27 15:03:19;;;;;;;2.73;1.30;;;;;;;20.52;45.20;102323.52;;;;-48
2021/02/27 15:06:19;;;;;;;2.47;1.43;;;;;;;20.53;45.22;102320.55;;;;-54
2021/02/27 15:09:19;;;;;;;1.75;1.45;;;;;;;20.56;45.15;102317.61;;;;-52
2021/02/27 15:12:18;;;;;;;2.50;1.40;;;;;;;20.56;45.25;102317.29;;;;-51
2021/02/27 15:15:19;;;;;;;1.82;1.48;;;;;;;20.58;45.24;102314.54;;;;-49
2021/02/27 15:18:19;;;;;;;2.31;1.37;;;;;;;20.57;45.25;102314.83;;;;-58
2021/02/27 15:21:18;;;;;;;1.50;1.40;;;;;;;20.58;45.32;102313.48;;;;-54
2021/02/27 15:24:19;;;;;;;1.47;1.33;;;;;;;20.59;45.25;102313.20;;;;-56
2021/02/27 15:27:19;;;;;;;1.41;1.31;;;;;;;20.58;45.29;102311.81;;;;-59
2021/02/27 15:30:18;;;;;;;2.25;1.53;;;;;;;20.56;45.33;102315.42;;;;-52
2021/02/27 15:33:19;;;;;;;1.57;1.45;;;;;;;20.56;45.41;102319.58;;;;-54
2021/02/27 15:36:18;;;;;;;2.27;1.41;;;;;;;20.57;45.36;102322.06;;;;-57
2021/02/27 15:39:18;;;;;;;1.65;1.32;;;;;;;20.53;45.05;102318.77;;;;-57
2021/02/27 15:42:19;;;;;;;2.35;1.47;;;;;;;20.51;44.90;102319.35;;;;-60
2021/02/27 15:45:18;;;;;;;2.11;1.38;;;;;;;20.48;44.81;102320.73;;;;-61
2021/02/27 15:48:19;;;;;;;2.63;1.40;;;;;;;20.46;44.76;102319.09;;;;-61
2021/02/27 15:51:19;;;;;;;1.47;1.37;;;;;;;20.48;44.72;102328.03;;;;-61
2021/02/27 15:54:18;;;;;;;1.49;1.30;;;;;;;20.46;44.67;102331.67;;;;-60
2021/02/27 15:57:18;;;;;;;1.31;1.16;;;;;;;20.46;44.63;102328.45;;;;-58
2021/02/27 16:00:19;;;;;;;1.45;1.35;;;;;;;20.44;44.62;102328.59;;;;-59
2021/02/27 16:03:18;;;;;;;2.37;1.40;;;;;;;20.49;44.78;102326.94;;;;-57
2021/02/27 16:06:19;;;;;;;1.66;1.37;;;;;;;20.51;45.00;102327.33;;;;-62
2021/02/27 16:09:18;;;;;;;2.55;1.31;;;;;;;20.54;45.20;102324.23;;;;-54
2021/02/27 16:12:19;;;;;;;1.89;1.26;;;;;;;20.56;45.18;102326.02;;;;-57
2021/02/27 16:15:19;;;;;;;1.91;1.37;;;;;;;20.59;45.27;102321.10;;;;-51
2021/02/27 16:18:18;;;;;;;1.57;1.47;;;;;;;20.61;45.26;102325.89;;;;-51
2021/02/27 16:21:19;;;;;;;2.42;1.40;;;;;;;20.60;45.16;102319.41;;;;-56
2021/02/27 16:24:19;;;;;;;2.56;1.39;;;;;;;20.64;45.24;102316.20;;;;-61
2021/02/27 16:27:18;;;;;;;1.40;1.30;;;;;;;20.65;45.32;102322.59;;;;-58
2021/02/27 16:30:19;;;;;;;1.60;1.33;;;;;;;20.68;45.34;102322.51;;;;-48
2021/02/27 16:33:18;;;;;;;1.77;1.23;;;;;;;20.68;45.24;102319.58;;;;-48
2021/02/27 16:36:18;;;;;;;2.88;1.33;;;;;;;20.68;45.30;102319.34;;;;-49
2021/02/27 16:39:19;;;;;;;1.50;1.35;;;;;;;20.70;45.25;102316.47;;;;-64
2021/02/27 16:42:18;;;;;;;1.51;1.32;;;;;;;20.72;45.32;102319.62;;;;-61
2021/02/27 16:45:18;;;;;;;1.91;1.38;;;;;;;20.72;45.39;102322.72;;;;-55